createdAt,value
2022-09-26T00:01:31.642Z,12.69
2022-09-26T00:04:05.118Z,12.66
2022-09-26T00:06:31.709Z,12.47
2022-09-26T00:08:58.373Z,12.52
2022-09-26T00:11:28.913Z,12.29
2022-09-26T00:13:58.205Z,11.98
2022-09-26T00:16:25.818Z,12.35
2022-09-26T00:18:54.473Z,12.37
2022-09-26T00:21:22.293Z,12.41
2022-09-26T00:23:49.895Z,12.67
2022-09-26T00:26:19.896Z,12.77
2022-09-26T00:28:46.515Z,12.62
2022-09-26T00:31:16.230Z,12.66
2022-09-26T00:33:43.191Z,12.79
2022-09-26T00:36:09.884Z,12.75
2022-09-26T00:38:37.036Z,13.06
2022-09-26T00:41:04.537Z,12.98
2022-09-26T00:43:35.923Z,12.92
2022-09-26T00:46:22.990Z,12.72
2022-09-26T00:49:13.624Z,12.53
2022-09-26T00:51:43.718Z,12.53
2022-09-26T00:54:13.844Z,12.59
2022-09-26T00:56:43.567Z,12.45
2022-09-26T00:59:16.084Z,12.62
2022-09-26T01:01:43.120Z,12.69
2022-09-26T01:04:12.534Z,12.75
2022-09-26T01:06:39.346Z,12.78
2022-09-26T01:09:07.159Z,13.28
2022-09-26T01:11:35.648Z,12.92
2022-09-26T01:14:03.002Z,12.80
2022-09-26T01:16:29.995Z,12.74
2022-09-26T01:18:56.766Z,12.69
2022-09-26T01:21:38.493Z,13.03
2022-09-26T01:24:23.670Z,12.90
2022-09-26T01:27:04.531Z,12.68
2022-09-26T01:30:05.155Z,12.93
2022-09-26T01:32:43.412Z,13.00
2022-09-26T01:35:59.319Z,13.02
2022-09-26T01:38:43.935Z,12.90
2022-09-26T01:41:38.103Z,12.92
2022-09-26T01:44:29.980Z,13.15
2022-09-26T01:47:35.690Z,13.14
2022-09-26T01:50:23.679Z,12.82
2022-09-26T01:52:56.418Z,12.58
2022-09-26T01:55:31.093Z,12.96
2022-09-26T01:58:13.193Z,13.23
2022-09-26T02:00:43.049Z,13.03
2022-09-26T02:03:14.766Z,12.93
2022-09-26T02:05:51.827Z,12.94
2022-09-26T02:08:53.551Z,13.00
2022-09-26T02:11:20.795Z,12.69
2022-09-26T02:14:01.926Z,12.69
2022-09-26T02:16:36.893Z,12.83
2022-09-26T02:19:20.654Z,12.78
2022-09-26T02:21:47.875Z,12.60
2022-09-26T02:24:15.103Z,12.91
2022-09-26T02:26:42.063Z,12.83
2022-09-26T02:29:10.004Z,12.95
2022-09-26T02:31:42.229Z,12.98
2022-09-26T02:34:08.883Z,13.23
2022-09-26T02:36:35.462Z,13.14
2022-09-26T02:39:02.143Z,13.03
2022-09-26T02:41:33.792Z,13.08
2022-09-26T02:44:19.779Z,13.36
2022-09-26T02:47:02.045Z,13.01
2022-09-26T02:49:53.320Z,13.09
2022-09-26T02:52:35.884Z,13.58
2022-09-26T02:55:35.396Z,13.15
2022-09-26T02:58:13.622Z,12.75
2022-09-26T03:01:06.121Z,12.08
2022-09-26T03:03:43.327Z,11.95
2022-09-26T03:06:13.884Z,12.13
2022-09-26T03:08:45.759Z,11.98
2022-09-26T03:11:17.100Z,12.60
2022-09-26T03:13:45.618Z,12.64
2022-09-26T03:16:14.140Z,12.50
2022-09-26T03:18:50.288Z,12.76
2022-09-26T03:21:17.647Z,13.26
2022-09-26T03:23:44.908Z,13.11
2022-09-26T03:26:14.763Z,12.93
2022-09-26T03:28:41.368Z,12.87
2022-09-26T03:31:08.067Z,12.78
2022-09-26T03:33:34.643Z,12.67
2022-09-26T03:36:05.698Z,12.65
2022-09-26T03:38:32.402Z,12.61
2022-09-26T03:40:59.117Z,12.90
2022-09-26T03:43:25.792Z,12.96
2022-09-26T03:45:52.489Z,12.90
2022-09-26T03:48:19.119Z,13.20
2022-09-26T03:50:45.700Z,13.13
2022-09-26T03:53:12.327Z,13.10
2022-09-26T03:55:39.459Z,12.94
2022-09-26T03:58:06.049Z,12.70
2022-09-26T04:00:32.694Z,12.58
2022-09-26T04:03:02.276Z,12.66
2022-09-26T04:05:28.864Z,12.54
2022-09-26T04:07:55.847Z,12.62
2022-09-26T04:10:22.419Z,12.71
2022-09-26T04:12:49.001Z,12.75
2022-09-26T04:15:15.753Z,12.85
2022-09-26T04:17:42.360Z,12.78
2022-09-26T04:20:08.975Z,12.34
2022-09-26T04:22:35.717Z,12.41
2022-09-26T04:25:02.312Z,12.41
2022-09-26T04:27:29.263Z,12.69
2022-09-26T04:29:55.850Z,12.90
2022-09-26T04:32:22.589Z,12.82
2022-09-26T04:34:49.238Z,12.48
2022-09-26T04:37:15.822Z,12.70
2022-09-26T04:39:42.428Z,12.82
2022-09-26T04:42:09.144Z,12.84
2022-09-26T04:44:35.865Z,12.91
2022-09-26T04:47:02.539Z,12.61
2022-09-26T04:49:29.107Z,12.66
2022-09-26T04:51:55.696Z,12.77
2022-09-26T04:54:22.429Z,12.78
2022-09-26T04:56:49.000Z,13.05
2022-09-26T04:59:15.681Z,13.23
2022-09-26T05:01:42.576Z,12.95
2022-09-26T05:04:09.172Z,13.22
2022-09-26T05:06:35.757Z,12.85
2022-09-26T05:09:02.384Z,12.68
2022-09-26T05:11:28.940Z,12.97
2022-09-26T05:13:55.856Z,13.24
2022-09-26T05:16:22.740Z,13.59
2022-09-26T05:18:51.188Z,13.33
2022-09-26T05:21:17.930Z,13.02
2022-09-26T05:23:45.297Z,13.12
2022-09-26T05:26:20.388Z,12.84
2022-09-26T05:28:50.832Z,12.66
2022-09-26T05:31:18.005Z,12.90
2022-09-26T05:33:44.972Z,12.57
2022-09-26T05:36:12.534Z,12.82
2022-09-26T05:38:40.000Z,13.29
2022-09-26T05:41:06.799Z,12.92
2022-09-26T05:43:34.764Z,12.66
2022-09-26T05:46:03.894Z,12.71
2022-09-26T05:48:32.203Z,12.89
2022-09-26T05:51:19.162Z,13.20
2022-09-26T05:53:47.086Z,13.21
2022-09-26T05:56:18.794Z,13.05
2022-09-26T05:58:46.137Z,13.06
2022-09-26T06:01:15.696Z,12.93
2022-09-26T06:03:44.357Z,12.69
2022-09-26T06:06:15.565Z,12.77
2022-09-26T06:08:42.723Z,12.70
2022-09-26T06:11:15.247Z,12.39
2022-09-26T06:13:42.943Z,12.59
2022-09-26T06:16:14.022Z,12.61
2022-09-26T06:18:40.706Z,12.63
2022-09-26T06:21:09.322Z,12.63
2022-09-26T06:23:36.478Z,12.63
2022-09-26T06:26:05.120Z,12.80
2022-09-26T06:28:31.684Z,12.96
2022-09-26T06:30:58.275Z,13.28
2022-09-26T06:33:26.125Z,13.32
2022-09-26T06:36:06.251Z,13.21
2022-09-26T06:38:33.890Z,13.20
2022-09-26T06:41:00.884Z,13.36
2022-09-26T06:43:27.850Z,12.40
2022-09-26T06:45:54.441Z,12.35
2022-09-26T06:48:24.585Z,12.47
2022-09-26T06:50:56.084Z,12.55
2022-09-26T06:53:22.801Z,13.11
2022-09-26T06:55:49.459Z,13.45
2022-09-26T06:58:16.051Z,12.67
2022-09-26T07:00:42.836Z,12.88
2022-09-26T07:03:10.208Z,12.32
2022-09-26T07:05:36.781Z,12.09
2022-09-26T07:08:03.422Z,12.12
2022-09-26T07:10:29.998Z,12.49
2022-09-26T07:13:01.788Z,12.77
2022-09-26T07:15:28.458Z,13.01
2022-09-26T07:17:55.041Z,12.61
2022-09-26T07:20:21.623Z,13.07
2022-09-26T07:22:48.196Z,12.56
2022-09-26T07:25:14.771Z,12.97
2022-09-26T07:27:41.548Z,13.30
2022-09-26T07:30:09.291Z,12.77
2022-09-26T07:32:35.875Z,13.02
2022-09-26T07:35:03.397Z,12.66
2022-09-26T07:37:31.070Z,12.93
2022-09-26T07:40:01.418Z,12.87
2022-09-26T07:42:28.508Z,12.47
2022-09-26T07:45:22.364Z,12.90
2022-09-26T07:47:41.645Z,12.96
2022-09-26T07:50:08.566Z,13.06
2022-09-26T07:52:35.214Z,13.01
2022-09-26T07:55:01.790Z,12.81
2022-09-26T07:57:28.404Z,12.84
2022-09-26T07:59:55.019Z,12.45
2022-09-26T08:02:23.847Z,12.81
2022-09-26T08:04:51.030Z,12.21
2022-09-26T08:07:17.738Z,12.06
2022-09-26T08:09:44.341Z,12.37
2022-09-26T08:12:11.214Z,12.01
2022-09-26T08:14:37.864Z,12.34
2022-09-26T08:17:04.446Z,12.08
2022-09-26T08:19:31.060Z,11.94
2022-09-26T08:21:57.653Z,11.88
2022-09-26T08:24:24.268Z,12.13
2022-09-26T08:26:50.887Z,12.72
2022-09-26T08:29:17.659Z,12.61
2022-09-26T08:31:44.284Z,12.31
2022-09-26T08:34:10.945Z,12.82
2022-09-26T08:36:37.699Z,12.90
2022-09-26T08:39:04.685Z,12.64
2022-09-26T08:41:54.077Z,12.45
2022-09-26T08:44:52.853Z,12.40
2022-09-26T08:47:40.085Z,12.72
2022-09-26T08:50:28.584Z,12.54
2022-09-26T08:53:04.925Z,12.40
2022-09-26T08:55:36.557Z,12.52
2022-09-26T08:58:15.246Z,12.58
2022-09-26T09:00:42.107Z,12.60
2022-09-26T09:03:31.610Z,12.97
2022-09-26T09:06:07.826Z,13.26
2022-09-26T09:08:51.016Z,13.32
2022-09-26T09:11:55.079Z,13.34
2022-09-26T09:15:23.990Z,12.89
2022-09-26T09:18:19.434Z,12.83
2022-09-26T09:20:51.736Z,12.79
2022-09-26T09:23:33.883Z,12.91
2022-09-26T09:29:10.325Z,13.25
2022-09-26T09:31:41.201Z,13.14
2022-09-26T09:34:28.703Z,13.06
2022-09-26T09:37:08.770Z,13.02
2022-09-26T09:39:39.958Z,13.11
2022-09-26T09:42:24.291Z,13.25
2022-09-26T09:45:04.553Z,13.52
2022-09-26T09:47:38.104Z,14.02
2022-09-26T09:50:45.907Z,13.38
2022-09-26T09:53:30.059Z,13.58
2022-09-26T09:56:21.371Z,13.83
2022-09-26T09:58:50.700Z,14.01
2022-09-26T10:01:34.086Z,14.32
2022-09-26T10:04:29.785Z,14.30
2022-09-26T10:06:56.429Z,14.33
2022-09-26T10:09:38.729Z,13.94
2022-09-26T10:12:19.276Z,14.09
2022-09-26T10:15:02.431Z,14.12
2022-09-26T10:17:29.167Z,14.07
2022-09-26T10:19:56.452Z,14.21
2022-09-26T10:22:33.424Z,14.30
2022-09-26T10:25:03.294Z,14.43
2022-09-26T10:27:41.378Z,14.35
2022-09-26T10:30:19.926Z,14.37
2022-09-26T10:32:56.311Z,14.19
2022-09-26T10:35:41.427Z,14.35
2022-09-26T10:38:25.334Z,14.37
2022-09-26T10:41:22.117Z,13.98
2022-09-26T10:43:56.290Z,14.16
2022-09-26T10:46:23.889Z,14.23
2022-09-26T10:48:54.195Z,14.26
2022-09-26T10:51:32.868Z,14.09
2022-09-26T10:54:06.623Z,14.01
2022-09-26T10:56:46.862Z,13.94
2022-09-26T10:59:18.410Z,14.55
2022-09-26T11:01:55.104Z,14.34
2022-09-26T11:04:34.269Z,14.13
2022-09-26T11:07:00.948Z,14.25
2022-09-26T11:09:27.860Z,14.26
2022-09-26T11:11:55.404Z,14.14
2022-09-26T11:14:28.468Z,14.28
2022-09-26T11:16:56.469Z,14.51
2022-09-26T11:19:44.094Z,14.56
2022-09-26T11:22:24.898Z,14.28
2022-09-26T11:25:08.305Z,14.50
2022-09-26T11:27:48.886Z,14.73
2022-09-26T11:30:21.264Z,14.51
2022-09-26T11:32:50.338Z,14.34
2022-09-26T11:35:40.343Z,14.86
2022-09-26T11:38:25.260Z,14.57
2022-09-26T11:41:27.328Z,15.15
2022-09-26T11:44:20.470Z,15.31
2022-09-26T11:47:02.991Z,15.30
2022-09-26T11:49:56.840Z,15.58
2022-09-26T11:52:48.380Z,15.61
2022-09-26T11:55:51.238Z,15.70
2022-09-26T11:58:39.595Z,15.60
2022-09-26T12:01:21.163Z,15.65
2022-09-26T12:03:53.984Z,15.99
2022-09-26T12:06:20.559Z,16.30
2022-09-26T12:09:02.907Z,16.18
2022-09-26T12:12:26.049Z,15.73
2022-09-26T12:14:56.912Z,15.74
2022-09-26T12:17:53.481Z,15.75
2022-09-26T12:20:40.794Z,16.04
2022-09-26T12:23:15.620Z,16.20
2022-09-26T12:26:00.022Z,16.07
2022-09-26T12:28:44.175Z,16.25
2022-09-26T12:31:35.762Z,16.63
2022-09-26T12:34:05.031Z,16.62
2022-09-26T12:36:42.668Z,16.67
2022-09-26T12:39:30.043Z,16.78
2022-09-26T12:42:24.964Z,17.07
2022-09-26T12:44:57.539Z,17.06
2022-09-26T12:47:50.055Z,17.34
2022-09-26T12:50:38.862Z,17.30
2022-09-26T12:53:26.474Z,16.87
2022-09-26T12:56:08.925Z,16.90
2022-09-26T12:58:44.446Z,16.83
2022-09-26T13:01:35.031Z,16.93
2022-09-26T13:04:17.670Z,16.98
2022-09-26T13:07:14.416Z,16.65
2022-09-26T13:10:06.014Z,16.60
2022-09-26T13:13:02.778Z,16.73
2022-09-26T13:15:52.337Z,16.90
2022-09-26T13:18:29.006Z,16.75
2022-09-26T13:21:05.994Z,16.63
2022-09-26T13:23:59.380Z,16.28
2022-09-26T13:26:34.197Z,16.29
2022-09-26T13:29:16.756Z,16.54
2022-09-26T13:32:20.797Z,17.03
2022-09-26T13:35:13.442Z,16.97
2022-09-26T13:37:57.863Z,17.23
2022-09-26T13:40:50.236Z,17.84
2022-09-26T13:43:38.040Z,18.11
2022-09-26T13:46:17.224Z,17.93
2022-09-26T13:49:19.899Z,17.50
2022-09-26T13:52:02.413Z,17.38
2022-09-26T13:54:53.853Z,17.02
2022-09-26T13:57:57.897Z,16.62
2022-09-26T14:00:45.119Z,16.88
2022-09-26T14:03:11.665Z,16.54
2022-09-26T14:05:41.166Z,16.59
2022-09-26T14:08:25.718Z,16.53
2022-09-26T14:11:04.528Z,16.32
2022-09-26T14:13:37.199Z,16.58
2022-09-26T14:16:13.050Z,16.67
2022-09-26T14:18:54.362Z,16.13
2022-09-26T14:21:20.912Z,16.25
2022-09-26T14:23:49.852Z,16.56
2022-09-26T14:26:42.777Z,16.74
2022-09-26T14:29:35.668Z,16.99
2022-09-26T14:32:08.291Z,16.99
2022-09-26T14:34:48.248Z,16.70
2022-09-26T14:37:23.828Z,16.73
2022-09-26T14:39:59.555Z,16.74
2022-09-26T14:42:39.430Z,16.41
2022-09-26T14:45:28.857Z,16.15
2022-09-26T14:48:15.835Z,16.40
2022-09-26T14:50:51.452Z,16.57
2022-09-26T14:53:36.220Z,16.45
2022-09-26T14:56:15.921Z,16.76
2022-09-26T14:58:42.515Z,16.62
2022-09-26T15:01:14.634Z,16.73
2022-09-26T15:03:41.392Z,16.60
2022-09-26T15:06:12.779Z,16.61
2022-09-26T15:08:39.651Z,16.25
2022-09-26T15:11:07.335Z,16.54
2022-09-26T15:13:37.414Z,16.50
2022-09-26T15:16:14.197Z,16.58
2022-09-26T15:18:52.631Z,16.56
2022-09-26T15:21:33.073Z,16.78
2022-09-26T15:24:04.075Z,16.59
2022-09-26T15:26:36.267Z,16.91
2022-09-26T15:29:06.034Z,16.88
2022-09-26T15:31:45.339Z,16.63
2022-09-26T15:34:15.140Z,16.66
2022-09-26T15:36:44.440Z,16.42
2022-09-26T15:39:32.637Z,16.44
2022-09-26T15:42:00.794Z,16.49
2022-09-26T15:44:27.421Z,16.31
2022-09-26T15:46:54.078Z,16.37
2022-09-26T15:49:22.506Z,16.50
2022-09-26T15:51:54.500Z,16.44
2022-09-26T15:54:31.879Z,16.60
2022-09-26T15:57:02.265Z,16.81
2022-09-26T15:59:41.127Z,17.19
2022-09-26T16:02:29.315Z,16.84
2022-09-26T16:04:56.561Z,16.57
2022-09-26T16:07:26.338Z,16.60
2022-09-26T16:09:54.469Z,16.51
2022-09-26T16:12:23.600Z,16.54
2022-09-26T16:15:04.044Z,16.37
2022-09-26T16:17:39.169Z,16.37
2022-09-26T16:20:11.492Z,16.26
2022-09-26T16:22:41.873Z,16.32
2022-09-26T16:25:17.525Z,16.13
2022-09-26T16:27:52.188Z,15.95
2022-09-26T16:30:21.698Z,15.99
2022-09-26T16:32:48.505Z,16.16
2022-09-26T16:35:19.950Z,16.09
2022-09-26T16:38:20.925Z,15.68
2022-09-26T16:41:15.923Z,15.54
2022-09-26T16:43:42.613Z,15.40
2022-09-26T16:46:14.006Z,15.32
2022-09-26T16:48:54.743Z,15.16
2022-09-26T16:51:30.413Z,15.27
2022-09-26T16:54:16.207Z,15.37
2022-09-26T16:56:44.131Z,15.26
2022-09-26T16:59:27.129Z,15.02
2022-09-26T17:01:56.188Z,14.95
2022-09-26T17:04:33.860Z,14.87
2022-09-26T17:07:13.461Z,14.80
2022-09-26T17:09:40.385Z,14.65
2022-09-26T17:12:22.344Z,14.64
2022-09-26T17:14:51.907Z,14.57
2022-09-26T17:17:21.694Z,14.79
2022-09-26T17:19:50.102Z,14.62
2022-09-26T17:22:19.047Z,14.50
2022-09-26T17:24:47.824Z,14.48
2022-09-26T17:27:21.523Z,14.40
2022-09-26T17:29:51.281Z,14.33
2022-09-26T17:32:33.947Z,14.32
2022-09-26T17:35:05.115Z,14.33
2022-09-26T17:37:31.697Z,14.30
2022-09-26T17:39:58.298Z,14.24
2022-09-26T17:42:25.394Z,14.19
2022-09-26T17:44:51.976Z,14.26
2022-09-26T17:47:19.322Z,14.50
2022-09-26T17:49:51.221Z,14.31
2022-09-26T17:52:31.006Z,14.22
2022-09-26T17:55:01.399Z,14.13
2022-09-26T17:57:29.317Z,14.09
2022-09-26T17:59:57.079Z,14.30
2022-09-26T18:02:26.592Z,14.05
2022-09-26T18:04:54.747Z,13.92
2022-09-26T18:07:21.639Z,13.92
2022-09-26T18:09:51.242Z,13.78
2022-09-26T18:12:20.527Z,13.82
2022-09-26T18:14:48.399Z,13.74
2022-09-26T18:17:16.336Z,13.82
2022-09-26T18:19:42.933Z,13.67
2022-09-26T18:22:18.128Z,13.76
2022-09-26T18:24:50.875Z,13.84
2022-09-26T18:27:17.622Z,13.82
2022-09-26T18:29:45.255Z,13.71
2022-09-26T18:32:27.073Z,13.68
2022-09-26T18:34:53.713Z,13.68
2022-09-26T18:37:20.345Z,13.68
2022-09-26T18:39:50.850Z,13.77
2022-09-26T18:42:22.528Z,13.48
2022-09-26T18:44:50.590Z,13.62
2022-09-26T18:47:17.672Z,13.55
2022-09-26T18:49:46.015Z,13.55
2022-09-26T18:52:17.285Z,13.62
2022-09-26T18:54:45.357Z,13.52
2022-09-26T18:57:12.717Z,13.61
2022-09-26T18:59:39.324Z,13.52
2022-09-26T19:02:26.711Z,13.41
2022-09-26T19:04:56.576Z,13.40
2022-09-26T19:07:24.405Z,13.41
2022-09-26T19:09:51.177Z,13.42
2022-09-26T19:12:17.900Z,13.33
2022-09-26T19:14:44.811Z,13.32
2022-09-26T19:17:11.984Z,13.36
2022-09-26T19:19:38.730Z,13.18
2022-09-26T19:22:11.695Z,13.20
2022-09-26T19:24:54.195Z,13.17
2022-09-26T19:27:30.204Z,13.14
2022-09-26T19:30:08.404Z,13.18
2022-09-26T19:32:39.143Z,13.17
2022-09-26T19:35:30.585Z,13.10
2022-09-26T19:37:58.881Z,13.23
2022-09-26T19:40:27.032Z,13.08
2022-09-26T19:42:54.608Z,13.04
2022-09-26T19:45:21.505Z,13.03
2022-09-26T19:47:50.943Z,13.00
2022-09-26T19:50:20.555Z,13.02
2022-09-26T19:52:48.900Z,12.99
2022-09-26T19:55:19.436Z,13.04
2022-09-26T19:57:46.384Z,13.02
2022-09-26T20:00:13.874Z,13.06
2022-09-26T20:02:40.862Z,12.92
2022-09-26T20:05:19.349Z,12.99
2022-09-26T20:07:47.076Z,13.12
2022-09-26T20:10:16.785Z,13.19
2022-09-26T20:12:43.883Z,13.14
2022-09-26T20:15:14.820Z,13.06
2022-09-26T20:17:44.226Z,13.02
2022-09-26T20:20:31.047Z,13.03
2022-09-26T20:22:58.654Z,12.98
2022-09-26T20:25:28.396Z,13.09
2022-09-26T20:27:56.014Z,13.01
2022-09-26T20:30:22.786Z,12.99
2022-09-26T20:32:49.376Z,13.02
2022-09-26T20:35:16.179Z,12.99
2022-09-26T20:37:44.067Z,13.15
2022-09-26T20:40:19.844Z,13.14
2022-09-26T20:42:59.909Z,13.02
2022-09-26T20:45:31.270Z,12.94
2022-09-26T20:47:59.417Z,13.08
2022-09-26T20:50:33.802Z,13.12
2022-09-26T20:53:01.239Z,13.25
2022-09-26T20:55:27.818Z,12.97
2022-09-26T20:57:54.383Z,12.90
2022-09-26T21:00:21.084Z,12.87
2022-09-26T21:02:51.598Z,12.82
2022-09-26T21:05:22.012Z,12.85
2022-09-26T21:07:50.608Z,12.93
2022-09-26T21:10:22.554Z,12.93
2022-09-26T21:12:49.365Z,12.94
2022-09-26T21:15:16.206Z,12.95
2022-09-26T21:17:44.208Z,13.06
2022-09-26T21:20:16.244Z,12.91
2022-09-26T21:22:43.624Z,12.79
2022-09-26T21:25:18.439Z,12.80
2022-09-26T21:27:52.611Z,12.79
2022-09-26T21:30:20.220Z,12.88
2022-09-26T21:32:50.431Z,12.99
2022-09-26T21:35:19.516Z,13.08
2022-09-26T21:37:49.390Z,13.14
2022-09-26T21:40:17.175Z,13.40
2022-09-26T21:42:49.668Z,13.16
2022-09-26T21:45:18.243Z,13.01
2022-09-26T21:47:45.038Z,13.14
2022-09-26T21:50:11.782Z,12.93
2022-09-26T21:52:49.182Z,12.95
2022-09-26T21:55:24.445Z,13.09
2022-09-26T21:57:53.176Z,12.85
2022-09-26T22:00:20.206Z,12.79
2022-09-26T22:02:46.873Z,12.74
2022-09-26T22:05:13.492Z,12.88
2022-09-26T22:07:40.082Z,13.13
2022-09-26T22:10:07.329Z,13.08
2022-09-26T22:12:34.163Z,12.97
2022-09-26T22:15:00.782Z,12.94
2022-09-26T22:17:27.507Z,12.71
2022-09-26T22:19:54.139Z,12.81
2022-09-26T22:22:20.770Z,12.85
2022-09-26T22:24:47.470Z,12.81
2022-09-26T22:27:14.207Z,12.92
2022-09-26T22:29:40.854Z,12.87
2022-09-26T22:32:07.470Z,12.93
2022-09-26T22:34:35.420Z,13.18
2022-09-26T22:37:02.040Z,13.18
2022-09-26T22:39:28.633Z,12.89
2022-09-26T22:41:55.250Z,12.88
2022-09-26T22:44:21.858Z,12.58
2022-09-26T22:46:48.483Z,12.36
2022-09-26T22:49:15.164Z,12.31
2022-09-26T22:51:41.836Z,12.35
2022-09-26T22:54:08.498Z,12.59
2022-09-26T22:56:35.261Z,12.47
2022-09-26T22:59:01.858Z,12.46
2022-09-26T23:01:28.600Z,12.14
2022-09-26T23:03:57.307Z,12.31
2022-09-26T23:06:25.071Z,12.53
2022-09-26T23:08:52.177Z,12.63
2022-09-26T23:11:19.368Z,12.57
2022-09-26T23:13:46.755Z,12.53
2022-09-26T23:16:15.838Z,12.63
2022-09-26T23:18:43.706Z,12.85
2022-09-26T23:21:18.687Z,13.20
2022-09-26T23:23:47.738Z,13.07
2022-09-26T23:26:26.230Z,12.70
2022-09-26T23:28:55.196Z,12.69
2022-09-26T23:31:23.644Z,12.65
2022-09-26T23:33:50.499Z,12.60
2022-09-26T23:36:17.127Z,12.51
2022-09-26T23:38:44.077Z,12.37
2022-09-26T23:41:12.037Z,12.28
2022-09-26T23:43:39.271Z,12.33
2022-09-26T23:46:07.062Z,12.39
2022-09-26T23:48:34.455Z,12.34
2022-09-26T23:51:01.077Z,12.44
2022-09-26T23:53:27.838Z,12.33
2022-09-26T23:56:08.503Z,12.25
2022-09-26T23:58:36.084Z,12.23
